KUNU/UNU METAR and TAF weather

Enter ICAO airport designator
Station Type Date Time Source
KUNU METAR 2022/01/26 08:55 UTC NOAA

KUNU 260855Z AUTO 00000KT 10SM CLR M24/M28 A3042 RMK AO2 T12411277


Station Type Date Time Source
KUNU Decoded METAR 2022/01/26 08:55 UTC NOAA

Juneau, Dodge County Airport, WI, United States (KUNU) 43-25-36N 088-42-12W
Jan 26, 2022 - 03:55 AM EST / 2022.01.26 0855 UTC
Wind: Calm:0
Visibility: 10 mile(s):0
Sky conditions: clear
Temperature: -11.4 F (-24.1 C)
Dew Point: -17.9 F (-27.7 C)
Relative Humidity: 72%
Pressure (altimeter): 30.42 in. Hg (1030 hPa)
ob: KUNU 260855Z AUTO 00000KT 10SM CLR M24/M28 A3042 RMK AO2 T12411277
cycle: 9

Station Type Date Time Source
KUNU TAF UTC NOAA

Error!

Example: see airport list